createdAt,value
2023-05-23T00:00:59.769Z,13.84
2023-05-23T00:04:49.175Z,13.70
2023-05-23T00:08:38.283Z,13.70
2023-05-23T00:12:27.718Z,13.60
2023-05-23T00:16:16.984Z,13.60
2023-05-23T00:20:06.193Z,13.60
2023-05-23T00:23:55.455Z,13.60
2023-05-23T00:27:44.693Z,13.70
2023-05-23T00:31:34.271Z,13.70
2023-05-23T00:35:23.591Z,13.70
2023-05-23T00:39:12.647Z,13.70
2023-05-23T00:43:01.937Z,13.70
2023-05-23T00:46:51.197Z,13.60
2023-05-23T00:50:40.249Z,13.46
2023-05-23T00:54:29.392Z,13.30
2023-05-23T00:58:18.492Z,13.30
2023-05-23T01:02:07.817Z,13.20
2023-05-23T01:05:58.052Z,13.24
2023-05-23T01:09:47.419Z,13.20
2023-05-23T01:13:39.087Z,13.30
2023-05-23T01:17:19.450Z,13.20
2023-05-23T01:21:05.957Z,13.20
2023-05-23T01:25:10.236Z,13.20
2023-05-23T01:29:02.158Z,13.20
2023-05-23T01:32:51.238Z,13.30
2023-05-23T01:36:40.191Z,13.22
2023-05-23T01:40:29.370Z,13.20
2023-05-23T01:44:20.929Z,13.20
2023-05-23T01:48:11.080Z,13.30
2023-05-23T01:52:00.238Z,13.20
2023-05-23T01:55:49.484Z,13.20
2023-05-23T01:59:38.750Z,13.10
2023-05-23T02:02:58.896Z,13.10
2023-05-23T02:06:48.160Z,13.00
2023-05-23T02:10:37.253Z,13.00
2023-05-23T02:14:26.507Z,13.00
2023-05-23T02:18:15.747Z,13.00
2023-05-23T02:22:07.614Z,12.90
2023-05-23T02:25:56.673Z,12.80
2023-05-23T02:29:45.805Z,12.70
2023-05-23T02:33:34.901Z,12.56
2023-05-23T02:37:24.293Z,12.50
2023-05-23T02:41:13.385Z,12.30
2023-05-23T02:45:02.473Z,12.26
2023-05-23T02:48:51.543Z,12.10
2023-05-23T02:52:40.613Z,12.10
2023-05-23T02:56:29.646Z,12.00
2023-05-23T03:00:18.795Z,12.00
2023-05-23T03:04:07.910Z,12.00
2023-05-23T03:07:59.035Z,11.90
2023-05-23T03:11:47.976Z,11.80
2023-05-23T03:15:37.117Z,11.80
2023-05-23T03:19:26.338Z,11.80
2023-05-23T03:23:15.648Z,11.80
2023-05-23T03:27:04.968Z,11.90
2023-05-23T03:30:54.362Z,11.92
2023-05-23T03:34:43.433Z,11.90
2023-05-23T03:38:32.477Z,11.96
2023-05-23T03:42:21.753Z,12.00
2023-05-23T03:46:11.128Z,12.00
2023-05-23T03:50:00.341Z,12.00
2023-05-23T03:53:49.628Z,12.02
2023-05-23T03:57:38.608Z,12.10
2023-05-23T04:01:13.090Z,12.10
2023-05-23T04:05:02.292Z,12.20
2023-05-23T04:08:51.525Z,12.30
2023-05-23T04:12:40.519Z,12.40
2023-05-23T04:16:29.719Z,12.50
2023-05-23T04:20:18.779Z,12.62
2023-05-23T04:24:07.887Z,12.70
2023-05-23T04:27:57.226Z,12.84
2023-05-23T04:31:46.777Z,13.00
2023-05-23T04:35:35.984Z,13.10
2023-05-23T04:39:25.419Z,13.20
2023-05-23T04:43:17.655Z,13.30
2023-05-23T04:47:12.651Z,13.40
2023-05-23T04:51:01.735Z,13.50
2023-05-23T04:54:50.691Z,13.60
2023-05-23T04:58:39.953Z,13.70
2023-05-23T05:02:29.283Z,13.80
2023-05-23T05:06:18.437Z,13.90
2023-05-23T05:10:07.459Z,14.02
2023-05-23T05:13:56.556Z,14.20
2023-05-23T05:17:46.470Z,14.20
2023-05-23T05:21:37.477Z,14.40
2023-05-23T05:25:26.615Z,14.50
2023-05-23T05:29:15.737Z,14.60
2023-05-23T05:33:05.043Z,14.70
2023-05-23T05:36:54.804Z,14.80
2023-05-23T05:40:44.207Z,14.90
2023-05-23T05:44:33.316Z,15.00
2023-05-23T05:48:22.625Z,15.10
2023-05-23T05:52:11.707Z,15.20
2023-05-23T05:56:01.022Z,15.30
2023-05-23T05:59:50.141Z,15.50
2023-05-23T06:03:32.886Z,15.60
2023-05-23T06:07:22.278Z,15.70
2023-05-23T06:11:04.224Z,15.80
2023-05-23T06:14:53.352Z,15.90
2023-05-23T06:18:42.363Z,16.00
2023-05-23T06:22:31.422Z,16.10
2023-05-23T06:26:20.915Z,16.20
2023-05-23T06:30:09.833Z,16.30
2023-05-23T06:33:58.970Z,16.40
2023-05-23T06:37:48.025Z,16.52
2023-05-23T06:41:20.298Z,16.70
2023-05-23T06:44:50.738Z,16.80
2023-05-23T06:48:15.844Z,16.90
2023-05-23T06:52:04.849Z,17.02
2023-05-23T06:55:47.188Z,17.20
2023-05-23T06:59:35.956Z,17.30
2023-05-23T07:03:33.932Z,17.40
2023-05-23T07:07:23.069Z,17.60
2023-05-23T07:11:12.133Z,17.70
2023-05-23T07:15:04.446Z,17.90
2023-05-23T07:18:55.685Z,18.10
2023-05-23T07:22:44.943Z,18.30
2023-05-23T07:26:34.066Z,18.40
2023-05-23T07:30:23.068Z,18.60
2023-05-23T07:34:12.471Z,18.70
2023-05-23T07:38:10.980Z,18.90
2023-05-23T07:41:38.930Z,19.00
2023-05-23T07:45:07.883Z,19.20
2023-05-23T07:48:26.684Z,19.30
2023-05-23T07:52:15.739Z,19.40
2023-05-23T07:56:04.854Z,19.60
2023-05-23T07:59:53.957Z,19.70
2023-05-23T08:03:43.019Z,19.80
2023-05-23T08:07:15.846Z,19.98
2023-05-23T08:11:09.412Z,20.10
2023-05-23T08:14:58.399Z,20.30
2023-05-23T08:18:56.601Z,20.40
2023-05-23T08:22:45.714Z,20.60
2023-05-23T08:26:31.392Z,20.70
2023-05-23T08:30:00.627Z,20.90
2023-05-23T08:33:11.180Z,21.00
2023-05-23T08:36:59.524Z,21.10
2023-05-23T08:40:31.121Z,21.20
2023-05-23T08:43:49.013Z,21.28
2023-05-23T08:47:41.234Z,21.30
2023-05-23T08:51:20.656Z,21.42
2023-05-23T08:54:41.277Z,21.56
2023-05-23T08:58:30.328Z,21.70
2023-05-23T09:01:59.582Z,21.80
2023-05-23T09:05:38.100Z,21.90
2023-05-23T09:09:09.543Z,21.90
2023-05-23T09:12:57.656Z,22.00
2023-05-23T09:16:16.816Z,22.10
2023-05-23T09:19:57.701Z,22.30
2023-05-23T09:23:49.751Z,22.30
2023-05-23T09:27:08.036Z,22.40
2023-05-23T09:30:40.589Z,22.50
2023-05-23T09:34:14.573Z,22.60
2023-05-23T09:37:46.772Z,22.60
2023-05-23T09:40:37.472Z,22.80
2023-05-23T09:44:20.703Z,22.80
2023-05-23T09:47:24.798Z,23.00
2023-05-23T09:50:46.724Z,23.10
2023-05-23T09:54:07.451Z,23.20
2023-05-23T09:57:45.531Z,23.38
2023-05-23T10:00:49.181Z,23.50
2023-05-23T10:04:08.431Z,23.60
2023-05-23T10:07:43.230Z,23.80
2023-05-23T10:11:04.943Z,24.00
2023-05-23T10:14:33.710Z,24.20
2023-05-23T10:17:40.253Z,24.30
2023-05-23T10:20:47.036Z,24.40
2023-05-23T10:24:15.646Z,24.50
2023-05-23T10:27:26.918Z,24.60
2023-05-23T10:30:21.575Z,24.80
2023-05-23T10:33:39.569Z,25.00
2023-05-23T10:36:29.692Z,25.26
2023-05-23T10:39:36.252Z,25.50
2023-05-23T10:42:34.413Z,25.68
2023-05-23T10:45:42.946Z,25.92
2023-05-23T10:48:46.732Z,25.92
2023-05-23T10:51:25.013Z,26.00
2023-05-23T10:54:17.896Z,26.10
2023-05-23T10:57:06.466Z,26.24
2023-05-23T10:59:37.990Z,26.40
2023-05-23T11:02:27.329Z,26.50
2023-05-23T11:05:43.902Z,26.44
2023-05-23T11:08:27.314Z,26.40
2023-05-23T11:11:02.114Z,26.50
2023-05-23T11:14:00.492Z,26.80
2023-05-23T11:16:34.567Z,26.78
2023-05-23T11:19:32.440Z,27.00
2023-05-23T11:22:06.400Z,26.88
2023-05-23T11:24:54.260Z,26.86
2023-05-23T11:27:39.008Z,26.92
2023-05-23T11:30:20.193Z,27.08
2023-05-23T11:32:53.307Z,27.00
2023-05-23T11:35:22.191Z,27.02
2023-05-23T11:37:50.525Z,27.12
2023-05-23T11:40:32.795Z,27.30
2023-05-23T11:43:08.869Z,27.40
2023-05-23T11:45:38.090Z,27.50
2023-05-23T11:48:09.957Z,27.62
2023-05-23T11:50:49.192Z,27.80
2023-05-23T11:53:31.129Z,28.00
2023-05-23T11:56:00.813Z,28.20
2023-05-23T11:58:30.535Z,28.14
2023-05-23T12:01:03.544Z,28.08
2023-05-23T12:03:32.083Z,28.04
2023-05-23T12:06:01.991Z,28.12
2023-05-23T12:08:32.470Z,27.78
2023-05-23T12:11:03.664Z,27.12
2023-05-23T12:13:35.080Z,26.90
2023-05-23T12:16:05.153Z,26.98
2023-05-23T12:18:33.709Z,27.10
2023-05-23T12:21:10.039Z,27.30
2023-05-23T12:23:41.429Z,27.04
2023-05-23T12:26:13.179Z,26.90
2023-05-23T12:29:02.336Z,26.88
2023-05-23T12:31:33.455Z,26.90
2023-05-23T12:34:08.446Z,26.90
2023-05-23T12:36:51.880Z,26.52
2023-05-23T12:39:49.379Z,26.40
2023-05-23T12:42:30.667Z,26.50
2023-05-23T12:45:04.443Z,26.50
2023-05-23T12:48:11.323Z,26.66
2023-05-23T12:51:00.246Z,26.70
2023-05-23T12:53:44.597Z,26.80
2023-05-23T12:56:28.018Z,26.80
2023-05-23T12:59:16.778Z,26.80
2023-05-23T13:02:05.540Z,26.80
2023-05-23T13:04:33.750Z,26.80
2023-05-23T13:07:11.518Z,26.80
2023-05-23T13:09:45.403Z,26.70
2023-05-23T13:12:36.177Z,26.60
2023-05-23T13:15:30.610Z,26.60
2023-05-23T13:18:05.101Z,26.70
2023-05-23T13:20:36.374Z,26.90
2023-05-23T13:23:13.767Z,27.10
2023-05-23T13:25:45.294Z,27.20
2023-05-23T13:28:19.407Z,27.24
2023-05-23T13:30:51.763Z,27.20
2023-05-23T13:33:24.216Z,27.20
2023-05-23T13:35:55.933Z,27.26
2023-05-23T13:38:27.780Z,27.20
2023-05-23T13:41:03.381Z,27.20
2023-05-23T13:43:32.029Z,27.20
2023-05-23T13:46:03.143Z,27.12
2023-05-23T13:48:42.755Z,26.70
2023-05-23T13:51:14.475Z,26.44
2023-05-23T13:53:52.234Z,26.22
2023-05-23T13:56:41.748Z,26.04
2023-05-23T13:59:21.959Z,25.90
2023-05-23T14:01:57.890Z,26.00
2023-05-23T14:04:29.734Z,26.14
2023-05-23T14:07:43.075Z,26.00
2023-05-23T14:10:31.065Z,25.80
2023-05-23T14:13:18.993Z,25.70
2023-05-23T14:16:04.141Z,25.52
2023-05-23T14:18:48.506Z,25.40
2023-05-23T14:21:46.134Z,25.28
2023-05-23T14:24:41.826Z,25.10
2023-05-23T14:27:48.915Z,24.90
2023-05-23T14:31:00.714Z,24.70
2023-05-23T14:34:05.682Z,24.50
2023-05-23T14:37:02.461Z,24.50
2023-05-23T14:40:06.331Z,24.50
2023-05-23T14:43:14.142Z,24.50
2023-05-23T14:46:13.945Z,24.30
2023-05-23T14:49:52.847Z,24.12
2023-05-23T14:53:04.839Z,23.90
2023-05-23T14:56:07.430Z,24.00
2023-05-23T14:59:11.798Z,24.10
2023-05-23T15:02:31.124Z,24.20
2023-05-23T15:05:40.589Z,24.20
2023-05-23T15:08:34.956Z,24.20
2023-05-23T15:11:35.392Z,24.20
2023-05-23T15:14:37.760Z,24.30
2023-05-23T15:17:50.426Z,24.30
2023-05-23T15:21:05.970Z,24.40
2023-05-23T15:24:09.566Z,24.50
2023-05-23T15:27:23.916Z,24.50
2023-05-23T15:30:33.016Z,24.58
2023-05-23T15:33:41.766Z,24.50
2023-05-23T15:37:20.018Z,24.40
2023-05-23T15:40:28.816Z,24.40
2023-05-23T15:43:39.862Z,24.38
2023-05-23T15:46:43.761Z,24.42
2023-05-23T15:50:04.023Z,24.40
2023-05-23T15:53:10.267Z,24.40
2023-05-23T15:56:21.245Z,24.50
2023-05-23T15:59:49.222Z,24.50
2023-05-23T16:03:18.231Z,24.50
2023-05-23T16:06:25.589Z,24.50
2023-05-23T16:09:37.052Z,24.40
2023-05-23T16:12:57.492Z,24.30
2023-05-23T16:16:19.467Z,24.30
2023-05-23T16:19:23.100Z,24.20
2023-05-23T16:22:14.093Z,24.10
2023-05-23T16:25:35.981Z,24.10
2023-05-23T16:28:31.198Z,24.00
2023-05-23T16:32:00.444Z,24.00
2023-05-23T16:35:21.293Z,23.90
2023-05-23T16:38:55.357Z,23.86
2023-05-23T16:42:04.842Z,23.90
2023-05-23T16:45:27.190Z,23.90
2023-05-23T16:48:40.870Z,23.80
2023-05-23T16:52:09.576Z,23.70
2023-05-23T16:55:33.577Z,23.50
2023-05-23T16:58:41.892Z,23.48
2023-05-23T17:02:18.523Z,23.30
2023-05-23T17:06:16.531Z,23.20
2023-05-23T17:09:45.375Z,23.10
2023-05-23T17:13:23.286Z,23.00
2023-05-23T17:17:12.278Z,22.90
2023-05-23T17:20:34.465Z,22.80
2023-05-23T17:24:08.716Z,22.70
2023-05-23T17:27:57.920Z,22.50
2023-05-23T17:31:35.556Z,22.40
2023-05-23T17:35:07.877Z,22.30
2023-05-23T17:38:42.406Z,22.20
2023-05-23T17:42:31.075Z,22.06
2023-05-23T17:46:20.699Z,21.90
2023-05-23T17:49:49.484Z,21.70
2023-05-23T17:53:38.520Z,21.50
2023-05-23T17:57:30.266Z,21.30
2023-05-23T18:01:19.655Z,21.18
2023-05-23T18:05:08.730Z,21.00
2023-05-23T18:08:57.620Z,20.80
2023-05-23T18:12:29.730Z,20.70
2023-05-23T18:16:18.763Z,20.60
2023-05-23T18:20:08.064Z,20.40
2023-05-23T18:23:57.122Z,20.20
2023-05-23T18:27:45.803Z,19.96
2023-05-23T18:31:34.986Z,19.80
2023-05-23T18:35:24.165Z,19.62
2023-05-23T18:39:14.370Z,19.50
2023-05-23T18:43:03.654Z,19.40
2023-05-23T18:46:52.842Z,19.20
2023-05-23T18:50:42.224Z,19.00
2023-05-23T18:54:31.521Z,18.80
2023-05-23T18:58:20.749Z,18.70
2023-05-23T19:02:09.896Z,18.52
2023-05-23T19:05:59.315Z,18.40
2023-05-23T19:09:48.483Z,18.30
2023-05-23T19:13:37.487Z,18.18
2023-05-23T19:17:26.623Z,18.10
2023-05-23T19:21:16.732Z,18.00
2023-05-23T19:25:05.853Z,17.98
2023-05-23T19:28:54.965Z,17.94
2023-05-23T19:32:44.149Z,18.00
2023-05-23T19:36:34.883Z,18.10
2023-05-23T19:40:17.468Z,18.20
2023-05-23T19:43:46.414Z,18.30
2023-05-23T19:47:30.244Z,18.34
2023-05-23T19:51:20.461Z,18.38
2023-05-23T19:55:09.916Z,18.30
2023-05-23T19:58:58.880Z,18.20
2023-05-23T20:02:48.224Z,18.10
2023-05-23T20:06:37.254Z,18.20
2023-05-23T20:10:19.135Z,18.20
2023-05-23T20:14:08.126Z,18.20
2023-05-23T20:18:07.600Z,18.30
2023-05-23T20:21:57.054Z,18.30
2023-05-23T20:25:46.236Z,18.20
2023-05-23T20:29:35.386Z,18.10
2023-05-23T20:33:24.390Z,18.10
2023-05-23T20:37:13.439Z,18.10
2023-05-23T20:41:03.934Z,18.20
2023-05-23T20:44:52.923Z,18.20
2023-05-23T20:48:42.535Z,18.20
2023-05-23T20:52:34.415Z,18.20
2023-05-23T20:56:23.457Z,18.20
2023-05-23T21:00:12.600Z,18.20
2023-05-23T21:04:01.695Z,18.10
2023-05-23T21:07:50.640Z,18.00
2023-05-23T21:11:39.708Z,17.82
2023-05-23T21:15:28.907Z,17.80
2023-05-23T21:19:17.998Z,17.70
2023-05-23T21:23:06.978Z,17.64
2023-05-23T21:26:55.745Z,17.58
2023-05-23T21:30:45.042Z,17.50
2023-05-23T21:34:34.335Z,17.40
2023-05-23T21:38:23.476Z,17.30
2023-05-23T21:42:12.648Z,17.30
2023-05-23T21:46:02.020Z,17.20
2023-05-23T21:49:51.093Z,17.14
2023-05-23T21:53:40.211Z,17.10
2023-05-23T21:57:29.228Z,17.00
2023-05-23T22:01:18.393Z,16.90
2023-05-23T22:05:07.522Z,16.90
2023-05-23T22:08:56.566Z,16.86
2023-05-23T22:12:45.984Z,16.80
2023-05-23T22:16:35.093Z,16.80
2023-05-23T22:20:24.945Z,16.80
2023-05-23T22:24:14.117Z,16.70
2023-05-23T22:28:03.263Z,16.70
2023-05-23T22:31:52.384Z,16.70
2023-05-23T22:35:41.359Z,16.68
2023-05-23T22:39:30.299Z,16.60
2023-05-23T22:43:19.905Z,16.50
2023-05-23T22:47:09.359Z,16.40
2023-05-23T22:51:01.624Z,16.34
2023-05-23T22:54:54.881Z,16.30
2023-05-23T22:58:42.913Z,16.10
2023-05-23T23:02:26.728Z,16.10
2023-05-23T23:06:15.962Z,16.00
2023-05-23T23:10:05.016Z,16.00
2023-05-23T23:13:54.413Z,15.90
2023-05-23T23:17:43.643Z,15.90
2023-05-23T23:21:32.861Z,15.90
2023-05-23T23:25:22.099Z,15.90
2023-05-23T23:29:11.208Z,15.90
2023-05-23T23:32:52.897Z,15.90
2023-05-23T23:36:41.828Z,15.90
2023-05-23T23:40:31.204Z,15.90
2023-05-23T23:44:20.587Z,15.90
2023-05-23T23:48:09.920Z,15.90
2023-05-23T23:51:59.080Z,15.90
2023-05-23T23:55:48.415Z,15.90
2023-05-23T23:59:37.558Z,15.90
